Terminal Aerodrome Forecast
Issued by NWS Jackson, MS

Home | Current Version | Previous Version | Text Only | Print | Product List | Glossary On
Versions: 1 2 3 4 5 6 7 8 9 10 11
085
FTUS44 KMEG 101128
TAFTUP
TAF
KTUP 101128Z 1012/1112 25004KT P6SM SKC
     FM101500 32007KT P6SM SKC
     FM110000 23003KT P6SM SCT100
     FM110600 VRB03KT P6SM BKN250=

USA.gov is the U.S. government's official web portal to all federal, state and local government web resources and services.